| time (UTC) | temp C | wind direction | speed KPH | gust KPH | rain 1hr cm | rain 24hr cm | rain mn cm | humidity % | barometer mb |
| 20260507091519 | 9 | 277 | 1.6 | 3.2 | 0.00 | 0.00 | 0.00 | 94 | 1006.9 |
| 20260507090519 | 9 | 244 | 3.2 | 4.8 | 0.00 | 0.00 | 0.00 | 94 | 1007.2 |
| 20260507085519 | 10 | 253 | 3.2 | 6.4 | 0.00 | 0.00 | 0.00 | 94 | 1007.1 |
| 20260507084523 | 10 | 246 | 3.2 | 8.0 | 0.00 | 0.00 | 0.00 | 94 | 1007.0 |
| 20260507083520 | 10 | 242 | 3.2 | 6.4 | 0.00 | 0.00 | 0.00 | 94 | 1006.9 |
| 20260507082520 | 10 | 247 | 4.8 | 6.4 | 0.00 | 0.00 | 0.00 | 94 | 1006.8 |
| 20260507081520 | 10 | 243 | 3.2 | 4.8 | 0.00 | 0.00 | 0.00 | 94 | 1006.4 |
| 20260507080540 | 10 | 257 | 3.2 | 4.8 | 0.00 | 0.00 | 0.00 | 93 | 1006.7 |
| 20260507075520 | 11 | 250 | 3.2 | 4.8 | 0.00 | 0.00 | 0.00 | 92 | 1006.9 |
| 20260507074520 | 11 | 259 | 3.2 | 8.0 | 0.00 | 0.00 | 0.00 | 90 | 1006.5 |
| 20260507073537 | 11 | 252 | 4.8 | 11.3 | 0.00 | 0.00 | 0.00 | 90 | 1006.8 |
| 20260507072518 | 11 | 257 | 4.8 | 12.9 | 0.00 | 0.00 | 0.00 | 91 | 1006.1 |
| 20260507071521 | 12 | 288 | 3.2 | 4.8 | 0.00 | 0.00 | 0.00 | 91 | 1005.9 |
| 20260507070521 | 12 | 259 | 3.2 | 4.8 | 0.00 | 0.00 | 0.00 | 91 | 1006.0 |
| 20260507065521 | 12 | 283 | 3.2 | 4.8 | 0.00 | 0.00 | 0.00 | 92 | 1005.9 |
| 20260507064541 | 12 | 264 | 3.2 | 4.8 | 0.00 | 0.00 | 0.00 | 91 | 1005.8 |
| 20260507063521 | 12 | 265 | 3.2 | 6.4 | 0.00 | 0.00 | 0.00 | 91 | 1006.0 |
| 20260507062522 | 12 | 241 | 3.2 | 8.0 | 0.00 | 0.00 | 0.00 | 91 | 1006.0 |
| 20260507061521 | 12 | 276 | 3.2 | 4.8 | 0.00 | 0.00 | 0.00 | 91 | 1005.8 |
| 20260507060519 | 12 | 275 | 3.2 | 8.0 | 0.00 | 0.00 | 0.00 | 90 | 1006.0 |
| 20260507055522 | 12 | 240 | 3.2 | 6.4 | 0.00 | 0.00 | 0.00 | 90 | 1006.0 |
| 20260507054519 | 12 | 251 | 3.2 | 8.0 | 0.00 | 0.00 | 0.00 | 91 | 1006.0 |
| 20260507053543 | 13 | 260 | 3.2 | 6.4 | 0.00 | 0.00 | 0.00 | 92 | 1006.2 |
| 20260507052522 | 13 | 242 | 3.2 | 6.4 | 0.00 | 0.00 | 0.00 | 93 | 1006.0 |
| 20260507051522 | 13 | 239 | 3.2 | 6.4 | 0.00 | 0.00 | 0.00 | 93 | 1005.8 |
| 20260507050520 | 13 | 240 | 3.2 | 11.3 | 0.00 | 0.00 | 0.00 | 93 | 1005.9 |
| 20260507045520 | 13 | 244 | 3.2 | 11.3 | 0.00 | 0.00 | 0.00 | 94 | 1006.1 |
| 20260507044540 | 13 | 251 | 4.8 | 11.3 | 0.00 | 0.00 | 0.00 | 96 | 1006.2 |
| 20260507043520 | 14 | 251 | 4.8 | 11.3 | 0.00 | 0.00 | 0.00 | 96 | 1005.9 |
| 20260507042523 | 14 | 246 | 3.2 | 4.8 | 0.00 | 0.00 | 0.00 | 96 | 1006.0 |
| 20260507041521 | 14 | 252 | 4.8 | 8.0 | 0.00 | 0.00 | 0.00 | 97 | 1006.0 |
| 20260507040521 | 15 | 255 | 6.4 | 12.9 | 0.00 | 0.00 | 0.00 | 97 | 1006.1 |
| 20260507035520 | 15 | 252 | 4.8 | 9.7 | 0.00 | 0.00 | 0.00 | 97 | 1006.2 |
| 20260507034521 | 15 | 249 | 6.4 | 11.3 | 0.00 | 0.00 | 0.00 | 97 | 1005.8 |
| 20260507033521 | 15 | 250 | 6.4 | 11.3 | 0.00 | 0.00 | 0.00 | 96 | 1005.7 |
| 20260507032521 | 15 | 253 | 8.0 | 14.5 | 0.00 | 0.00 | 0.00 | 96 | 1005.8 |
| 20260507031521 | 15 | 250 | 6.4 | 12.9 | 0.00 | 0.00 | 0.00 | 95 | 1005.5 |
| 20260507030541 | 15 | 242 | 4.8 | 8.0 | 0.00 | 0.00 | 0.00 | 95 | 1005.3 |
| 20260507025521 | 15 | 242 | 6.4 | 12.9 | 0.00 | 0.00 | 0.00 | 95 | 1005.2 |
| 20260507024522 | 15 | 241 | 4.8 | 12.9 | 0.00 | 0.00 | 0.00 | 95 | 1005.3 |
| 20260507023516 | 15 | 240 | 6.4 | 11.3 | 0.00 | 0.00 | 0.00 | 95 | 1005.4 |
| 20260507022519 | 15 | 250 | 4.8 | 16.1 | 0.00 | 0.00 | 0.00 | 95 | 1005.4 |
| 20260507021521 | 15 | 230 | 4.8 | 11.3 | 0.00 | 0.00 | 0.00 | 95 | 1005.4 |
| 20260507020522 | 15 | 233 | 4.8 | 11.3 | 0.00 | 0.00 | 0.00 | 95 | 1005.4 |
| 20260507015522 | 15 | 202 | 4.8 | 12.9 | 0.00 | 0.00 | 0.00 | 95 | 1005.3 |
| 20260507014543 | 15 | 235 | 4.8 | 12.9 | 0.00 | 0.00 | 0.00 | 95 | 1005.5 |
| 20260507013522 | 15 | 208 | 6.4 | 16.1 | 0.00 | 0.00 | 0.00 | 95 | 1005.4 |
| 20260507012517 | 14 | 200 | 6.4 | 12.9 | 0.00 | 0.00 | 0.00 | 96 | 1005.5 |
| 20260507011517 | 14 | 194 | 6.4 | 14.5 | 0.00 | 0.00 | 0.00 | 95 | 1005.5 |
| 20260507010517 | 14 | 202 | 9.7 | 19.3 | 0.00 | 0.00 | 0.00 | 95 | 1005.6 |
| 20260507005517 | 14 | 221 | 6.4 | 12.9 | 0.00 | 0.00 | 0.00 | 95 | 1005.7 |
| 20260507004537 | 14 | 228 | 6.4 | 12.9 | 0.00 | 0.00 | 0.00 | 95 | 1005.7 |
| 20260507003523 | 14 | 220 | 6.4 | 12.9 | 0.00 | 0.00 | 0.00 | 95 | 1005.6 |
| 20260507002537 | 14 | 225 | 6.4 | 12.9 | 0.00 | 0.00 | 0.00 | 96 | 1005.7 |
| 20260507001518 | 15 | 211 | 4.8 | 8.0 | 0.00 | 0.00 | 0.00 | 95 | 1005.6 |
| 20260507000518 | 15 | 206 | 6.4 | 11.3 | 0.00 | 0.00 | 0.00 | 95 | 1005.3 |
| 20260506235538 | 15 | 187 | 8.0 | 17.7 | 0.00 | 0.00 | 0.00 | 95 | 1005.3 |
| 20260506234518 | 15 | 202 | 6.4 | 12.9 | 0.00 | 0.00 | 0.00 | 95 | 1005.4 |
| 20260506233518 | 15 | 188 | 6.4 | 11.3 | 0.00 | 0.00 | 0.00 | 95 | 1005.4 |
| 20260506232518 | 15 | 213 | 6.4 | 14.5 | 0.00 | 0.00 | 0.00 | 95 | 1005.3 |
| 20260506231518 | 15 | 221 | 6.4 | 16.1 | 0.00 | 0.00 | 0.00 | 94 | 1005.3 |
| 20260506230518 | 15 | 203 | 8.0 | 17.7 | 0.00 | 0.00 | 0.00 | 95 | 1005.4 |
| 20260506225518 | 15 | 208 | 4.8 | 11.3 | 0.00 | 0.00 | 0.00 | 95 | 1005.4 |
| 20260506224519 | 15 | 198 | 6.4 | 12.9 | 0.00 | 0.00 | 0.00 | 95 | 1005.5 |
| 20260506223519 | 15 | 198 | 6.4 | 12.9 | 0.00 | 0.00 | 0.00 | 95 | 1005.6 |
| 20260506222519 | 15 | 196 | 6.4 | 11.3 | 0.00 | 0.00 | 0.00 | 95 | 1005.7 |
| 20260506221539 | 15 | 207 | 4.8 | 14.5 | 0.00 | 0.00 | 0.00 | 95 | 1005.8 |
| 20260506220528 | 15 | 213 | 3.2 | 8.0 | 0.00 | 0.00 | 0.00 | 94 | 1005.9 |
| 20260506215516 | 15 | 203 | 6.4 | 16.1 | 0.00 | 0.00 | 0.00 | 93 | 1005.9 |
| 20260506214540 | 16 | 218 | 4.8 | 12.9 | 0.00 | 0.00 | 0.00 | 90 | 1006.1 |
| 20260506213517 | 16 | 198 | 9.7 | 19.3 | 0.00 | 0.00 | 0.00 | 89 | 1006.3 |
| 20260506212520 | 16 | 208 | 6.4 | 12.9 | 0.00 | 0.00 | 0.00 | 90 | 1006.2 |
| 20260506211540 | 16 | 183 | 9.7 | 20.9 | 0.00 | 0.00 | 0.00 | 89 | 1006.3 |
| 20260506210520 | 16 | 198 | 6.4 | 12.9 | 0.00 | 0.00 | 0.00 | 89 | 1006.2 |
| 20260506205557 | 16 | 199 | 8.0 | 19.3 | 0.00 | 0.00 | 0.00 | 88 | 1006.3 |
| 20260506204520 | 16 | 214 | 6.4 | 14.5 | 0.00 | 0.00 | 0.00 | 88 | 1006.5 |
| 20260506203520 | 16 | 208 | 8.0 | 16.1 | 0.00 | 0.00 | 0.00 | 88 | 1006.7 |
| 20260506202517 | 16 | 211 | 9.7 | 17.7 | 0.00 | 0.00 | 0.00 | 87 | 1006.5 |
| 20260506201520 | 16 | 188 | 6.4 | 14.5 | 0.00 | 0.00 | 0.00 | 89 | 1006.5 |
| 20260506200520 | 16 | 180 | 6.4 | 14.5 | 0.00 | 0.00 | 0.00 | 88 | 1006.4 |
| 20260506195538 | 16 | 222 | 4.8 | 19.3 | 0.00 | 0.00 | 0.00 | 89 | 1006.4 |
| 20260506194521 | 16 | 196 | 4.8 | 11.3 | 0.00 | 0.00 | 0.00 | 87 | 1006.5 |
| 20260506193537 | 17 | 222 | 8.0 | 16.1 | 0.00 | 0.00 | 0.00 | 84 | 1006.7 |
| 20260506192521 | 17 | 220 | 4.8 | 11.3 | 0.00 | 0.00 | 0.00 | 80 | 1006.8 |
| 20260506191521 | 18 | 233 | 6.4 | 16.1 | 0.00 | 0.00 | 0.00 | 76 | 1006.8 |
| 20260506190518 | 19 | 225 | 9.7 | 20.9 | 0.00 | 0.00 | 0.00 | 71 | 1006.7 |
| 20260506185522 | 20 | 217 | 4.8 | 12.9 | 0.00 | 0.00 | 0.00 | 69 | 1006.7 |
| 20260506184519 | 20 | 247 | 11.3 | 29.0 | 0.00 | 0.00 | 0.00 | 66 | 1006.8 |
| 20260506183542 | 20 | 242 | 8.0 | 16.1 | 0.00 | 0.00 | 0.00 | 64 | 1006.8 |
| 20260506182516 | 21 | 236 | 9.7 | 24.1 | 0.00 | 0.00 | 0.00 | 61 | 1006.9 |
| 20260506181519 | 21 | 237 | 11.3 | 20.9 | 0.00 | 0.00 | 0.00 | 60 | 1006.9 |
| 20260506180519 | 21 | 201 | 12.9 | 25.7 | 0.00 | 0.00 | 0.00 | 58 | 1007.0 |
| 20260506175600 | 21 | 212 | 11.3 | 27.4 | 0.00 | 0.00 | 0.00 | 58 | 1007.0 |
| 20260506174519 | 21 | 217 | 9.7 | 25.7 | 0.00 | 0.00 | 0.00 | 59 | 1007.2 |
| 20260506173517 | 21 | 192 | 9.7 | 22.5 | 0.00 | 0.00 | 0.00 | 59 | 1007.2 |
| 20260506172516 | 21 | 200 | 11.3 | 22.5 | 0.00 | 0.00 | 0.00 | 60 | 1007.2 |
| 20260506171517 | 21 | 205 | 9.7 | 20.9 | 0.00 | 0.00 | 0.00 | 60 | 1007.3 |
| 20260506170517 | 21 | 183 | 11.3 | 24.1 | 0.00 | 0.00 | 0.00 | 62 | 1007.3 |
| 20260506165520 | 21 | 169 | 8.0 | 24.1 | 0.00 | 0.00 | 0.00 | 62 | 1007.4 |
| 20260506164518 | 21 | 183 | 11.3 | 22.5 | 0.00 | 0.00 | 0.00 | 62 | 1007.5 |
| 20260506163517 | 21 | 196 | 11.3 | 20.9 | 0.00 | 0.00 | 0.00 | 62 | 1007.6 |
| 20260506162517 | 21 | 176 | 9.7 | 22.5 | 0.00 | 0.00 | 0.00 | 62 | 1007.8 |
| 20260506161518 | 21 | 195 | 6.4 | 11.3 | 0.00 | 0.00 | 0.00 | 61 | 1008.0 |
| 20260506160518 | 21 | 210 | 8.0 | 24.1 | 0.00 | 0.00 | 0.00 | 60 | 1008.2 |
| 20260506155516 | 21 | 239 | 6.4 | 25.7 | 0.00 | 0.00 | 0.00 | 60 | 1008.3 |
| 20260506154516 | 21 | 218 | 11.3 | 20.9 | 0.00 | 0.00 | 0.00 | 59 | 1008.5 |
| 20260506153519 | 21 | 224 | 11.3 | 24.1 | 0.00 | 0.00 | 0.00 | 60 | 1008.6 |
| 20260506152519 | 21 | 203 | 12.9 | 25.7 | 0.00 | 0.00 | 0.00 | 61 | 1008.7 |
| 20260506151539 | 21 | 185 | 11.3 | 20.9 | 0.00 | 0.00 | 0.00 | 62 | 1008.7 |
| 20260506150517 | 20 | 194 | 9.7 | 19.3 | 0.00 | 0.00 | 0.00 | 64 | 1008.8 |
| 20260506145517 | 20 | 234 | 8.0 | 20.9 | 0.00 | 0.00 | 0.00 | 65 | 1009.0 |
| 20260506144517 | 20 | 229 | 6.4 | 14.5 | 0.00 | 0.00 | 0.00 | 67 | 1008.8 |
| 20260506143516 | 20 | 180 | 11.3 | 20.9 | 0.00 | 0.00 | 0.00 | 68 | 1008.9 |
| 20260506142516 | 20 | 208 | 6.4 | 17.7 | 0.00 | 0.00 | 0.00 | 69 | 1008.9 |
| 20260506141520 | 19 | 194 | 8.0 | 16.1 | 0.00 | 0.00 | 0.00 | 69 | 1008.8 |
| 20260506140558 | 19 | 180 | 8.0 | 16.1 | 0.00 | 0.00 | 0.00 | 71 | 1008.9 |
| 20260506135518 | 18 | 172 | 9.7 | 17.7 | 0.00 | 0.00 | 0.00 | 71 | 1008.9 |
| 20260506134518 | 18 | 188 | 9.7 | 20.9 | 0.00 | 0.00 | 0.00 | 73 | 1008.9 |
| 20260506133517 | 17 | 202 | 6.4 | 17.7 | 0.00 | 0.00 | 0.00 | 75 | 1009.4 |
| 20260506132519 | 17 | 176 | 4.8 | 16.1 | 0.00 | 0.00 | 0.00 | 75 | 1009.5 |
| 20260506131517 | 17 | 189 | 6.4 | 16.1 | 0.00 | 0.00 | 0.00 | 76 | 1009.5 |
| 20260506130537 | 17 | 195 | 9.7 | 16.1 | 0.00 | 0.00 | 0.00 | 77 | 1009.5 |
| 20260506125538 | 17 | 190 | 9.7 | 22.5 | 0.00 | 0.00 | 0.00 | 77 | 1009.4 |
| 20260506124517 | 17 | 196 | 8.0 | 19.3 | 0.00 | 0.00 | 0.00 | 78 | 1009.4 |
| 20260506123518 | 16 | 202 | 9.7 | 19.3 | 0.00 | 0.00 | 0.00 | 78 | 1009.6 |
| 20260506122518 | 16 | 199 | 8.0 | 17.7 | 0.00 | 0.00 | 0.00 | 79 | 1009.7 |
| 20260506121519 | 16 | 176 | 8.0 | 14.5 | 0.00 | 0.00 | 0.00 | 79 | 1009.4 |
| 20260506120518 | 16 | 188 | 9.7 | 19.3 | 0.00 | 0.00 | 0.00 | 80 | 1009.5 |
| 20260506115519 | 16 | 183 | 11.3 | 19.3 | 0.00 | 0.00 | 0.00 | 80 | 1009.8 |
| 20260506114540 | 16 | 210 | 4.8 | 12.9 | 0.00 | 0.00 | 0.00 | 80 | 1009.7 |
| 20260506113520 | 16 | 198 | 6.4 | 12.9 | 0.00 | 0.00 | 0.00 | 80 | 1010.0 |
| 20260506112516 | 16 | 197 | 8.0 | 19.3 | 0.00 | 0.00 | 0.00 | 80 | 1010.0 |
| 20260506111521 | 16 | 183 | 9.7 | 16.1 | 0.00 | 0.00 | 0.00 | 80 | 1009.7 |
| 20260506110539 | 16 | 186 | 6.4 | 17.7 | 0.00 | 0.00 | 0.00 | 80 | 1009.8 |
| 20260506105520 | 16 | 195 | 6.4 | 16.1 | 0.00 | 0.00 | 0.00 | 81 | 1009.8 |
| 20260506104521 | 15 | 190 | 6.4 | 12.9 | 0.00 | 0.00 | 0.00 | 81 | 1009.8 |
| 20260506103521 | 16 | 204 | 6.4 | 16.1 | 0.00 | 0.00 | 0.00 | 81 | 1009.8 |
| 20260506102517 | 16 | 198 | 6.4 | 12.9 | 0.00 | 0.00 | 0.00 | 80 | 1009.8 |
| 20260506101517 | 16 | 206 | 6.4 | 16.1 | 0.00 | 0.00 | 0.00 | 80 | 1009.8 |
| 20260506100517 | 16 | 199 | 8.0 | 12.9 | 0.00 | 0.00 | 0.00 | 79 | 1009.7 |
| 20260506095518 | 16 | 208 | 4.8 | 12.9 | 0.00 | 0.00 | 0.00 | 79 | 1009.6 |
| 20260506094538 | 16 | 192 | 8.0 | 12.9 | 0.00 | 0.00 | 0.00 | 79 | 1009.5 |
| 20260506093518 | 16 | 211 | 4.8 | 11.3 | 0.00 | 0.00 | 0.00 | 79 | 1009.6 |
| 20260506092538 | 16 | 213 | 6.4 | 12.9 | 0.00 | 0.00 | 0.00 | 79 | 1009.7 |